Time,TemperatureF,DewpointF,PressureIn,WindDirection,WindDirectionDegrees,WindSpeedMPH,WindSpeedGustMPH,Humidity,HourlyPrecipIn,Conditions,Clouds,dailyrainin,SolarRadiationWatts/m^2,SoftwareType,DateUTC
2013-11-30 00:22:00,36.0,35.0,-100.00,SSE,156,1.0,2.0,94,-99.99,,,0.00,0.120000,,2013-11-30 08:22:00,
2013-11-30 00:32:00,36.0,35.0,-100.00,SSE,156,1.0,2.0,94,-99.99,,,0.00,0.120000,,2013-11-30 08:32:00,
2013-11-30 00:42:00,36.0,35.0,-100.00,SSE,156,1.0,2.0,94,-99.99,,,0.00,0.120000,,2013-11-30 08:42:00,
2013-11-30 01:21:00,35.0,34.0,-100.00,SE,138,1.0,3.0,96,-99.99,,,0.00,0.120000,,2013-11-30 09:21:00,
2013-11-30 01:32:00,35.0,34.0,-100.00,SE,138,1.0,3.0,96,-99.99,,,0.00,0.120000,,2013-11-30 09:32:00,
2013-11-30 01:43:00,35.0,34.0,-100.00,SE,138,1.0,3.0,96,-99.99,,,0.00,0.120000,,2013-11-30 09:43:00,
2013-11-30 02:23:00,37.0,36.0,-100.00,NNW,337,2.0,4.0,97,-99.99,,,-99.99,0.120000,,2013-11-30 10:23:00,
2013-11-30 02:33:00,37.0,36.0,-100.00,NNW,337,2.0,4.0,97,-99.99,,,-99.99,0.120000,,2013-11-30 10:33:00,
2013-11-30 02:42:00,37.0,36.0,-100.00,NNW,337,2.0,4.0,97,-99.99,,,-99.99,0.120000,,2013-11-30 10:42:00,
2013-11-30 03:21:00,36.0,36.0,-100.00,South,174,2.0,3.0,97,-99.99,,,0.00,0.120000,,2013-11-30 11:21:00,
2013-11-30 03:33:00,36.0,36.0,-100.00,South,174,2.0,3.0,97,-99.99,,,0.00,0.120000,,2013-11-30 11:33:00,
2013-11-30 03:42:00,36.0,36.0,-100.00,South,174,2.0,3.0,97,-99.99,,,0.00,0.120000,,2013-11-30 11:42:00,
2013-11-30 04:22:00,36.0,36.0,-100.00,SSW,209,1.0,3.0,97,-99.99,,,0.00,0.120000,,2013-11-30 12:22:00,
2013-11-30 04:32:00,36.0,36.0,-100.00,SSW,209,1.0,3.0,97,-99.99,,,0.00,0.120000,,2013-11-30 12:32:00,
2013-11-30 04:42:00,36.0,36.0,-100.00,SSW,209,1.0,3.0,97,-99.99,,,0.00,0.120000,,2013-11-30 12:42:00,
2013-11-30 05:11:00,38.0,37.0,-100.00,ESE,119,2.0,4.0,98,-99.99,,,0.00,0.120000,,2013-11-30 13:11:00,
2013-11-30 05:21:00,38.0,37.0,-100.00,ESE,119,2.0,4.0,98,-99.99,,,0.00,0.120000,,2013-11-30 13:21:00,
2013-11-30 05:32:00,38.0,37.0,-100.00,ESE,119,2.0,4.0,98,-99.99,,,0.00,0.120000,,2013-11-30 13:32:00,
2013-11-30 05:42:00,38.0,37.0,-100.00,ESE,119,2.0,4.0,98,-99.99,,,0.00,0.120000,,2013-11-30 13:42:00,
2013-11-30 06:22:00,36.0,36.0,-100.00,South,174,2.0,3.0,98,-99.99,,,0.00,0.120000,,2013-11-30 14:22:00,
2013-11-30 06:32:00,36.0,36.0,-100.00,South,174,2.0,3.0,98,-99.99,,,0.00,0.120000,,2013-11-30 14:32:00,
2013-11-30 06:42:00,36.0,36.0,-100.00,South,174,2.0,3.0,98,-99.99,,,0.00,0.120000,,2013-11-30 14:42:00,
2013-11-30 07:21:00,39.0,39.0,-100.00,North,6,1.0,4.0,98,-99.99,,,0.00,0.120000,,2013-11-30 15:21:00,
2013-11-30 07:33:00,39.0,39.0,-100.00,North,6,1.0,4.0,98,-99.99,,,0.00,0.120000,,2013-11-30 15:33:00,
2013-11-30 07:54:00,36.0,36.0,-100.00,South,184,1.0,3.0,98,-99.99,,,0.00,0.120000,,2013-11-30 15:54:00,
2013-11-30 08:03:00,36.0,36.0,-100.00,South,184,1.0,3.0,98,-99.99,,,0.00,0.120000,,2013-11-30 16:03:00,
2013-11-30 08:13:00,36.0,36.0,-100.00,South,184,1.0,3.0,98,-99.99,,,0.00,0.120000,,2013-11-30 16:13:00,
2013-11-30 08:53:00,34.0,33.0,-100.00,South,169,2.0,3.0,98,-99.99,,,0.00,0.460000,,2013-11-30 16:53:00,
2013-11-30 09:02:00,34.0,33.0,-100.00,South,169,2.0,3.0,98,-99.99,,,0.00,0.460000,,2013-11-30 17:02:00,
2013-11-30 09:11:00,34.0,33.0,-100.00,South,169,2.0,3.0,98,-99.99,,,0.00,0.460000,,2013-11-30 17:11:00,
2013-11-30 09:42:00,35.0,35.0,-100.00,West,260,1.0,4.0,98,-99.99,,,0.00,47.189999,,2013-11-30 17:42:00,
2013-11-30 09:53:00,35.0,35.0,-100.00,West,260,1.0,4.0,98,-99.99,,,0.00,47.189999,,2013-11-30 17:53:00,
2013-11-30 10:01:00,35.0,35.0,-100.00,West,260,1.0,4.0,98,-99.99,,,0.00,47.189999,,2013-11-30 18:01:00,
2013-11-30 10:12:00,35.0,35.0,-100.00,West,260,1.0,4.0,98,-99.99,,,0.00,47.189999,,2013-11-30 18:12:00,
2013-11-30 10:52:00,39.0,39.0,-100.00,WNW,300,1.0,2.0,98,-99.99,,,0.00,51.950001,,2013-11-30 18:52:00,
2013-11-30 11:01:00,39.0,39.0,-100.00,WNW,300,1.0,2.0,98,-99.99,,,0.00,51.950001,,2013-11-30 19:01:00,
2013-11-30 11:11:00,39.0,39.0,-100.00,WNW,300,1.0,2.0,98,-99.99,,,0.00,51.950001,,2013-11-30 19:11:00,
2013-11-30 11:42:00,41.0,41.0,-100.00,NE,34,2.0,4.0,98,-99.99,,,0.00,62.180000,,2013-11-30 19:42:00,
2013-11-30 11:52:00,41.0,41.0,-100.00,NE,34,2.0,4.0,98,-99.99,,,0.00,62.180000,,2013-11-30 19:52:00,
2013-11-30 12:02:00,41.0,41.0,-100.00,NE,34,2.0,4.0,98,-99.99,,,0.00,62.180000,,2013-11-30 20:02:00,
2013-11-30 12:11:00,41.0,41.0,-100.00,NE,34,2.0,4.0,98,-99.99,,,0.00,62.180000,,2013-11-30 20:11:00,
2013-11-30 12:52:00,45.0,43.0,-100.00,North,358,1.0,3.0,95,-99.99,,,0.00,328.549988,,2013-11-30 20:52:00,
2013-11-30 13:02:00,45.0,43.0,-100.00,North,358,1.0,3.0,95,-99.99,,,0.00,328.549988,,2013-11-30 21:02:00,
2013-11-30 13:11:00,45.0,43.0,-100.00,North,358,1.0,3.0,95,-99.99,,,0.00,328.549988,,2013-11-30 21:11:00,
2013-11-30 13:53:00,48.0,44.0,-100.00,NW,324,2.0,3.0,85,-99.99,,,0.00,176.190002,,2013-11-30 21:53:00,
2013-11-30 14:03:00,48.0,44.0,-100.00,NW,324,2.0,3.0,85,-99.99,,,0.00,176.190002,,2013-11-30 22:03:00,
2013-11-30 14:12:00,48.0,44.0,-100.00,NW,324,2.0,3.0,85,-99.99,,,0.00,176.190002,,2013-11-30 22:12:00,
2013-11-30 14:52:00,50.0,43.0,-100.00,North,2,2.0,4.0,77,-99.99,,,0.00,194.669998,,2013-11-30 22:52:00,
2013-11-30 15:02:00,50.0,43.0,-100.00,North,2,2.0,4.0,77,-99.99,,,0.00,194.669998,,2013-11-30 23:02:00,
2013-11-30 15:12:00,50.0,43.0,-100.00,North,2,2.0,4.0,77,-99.99,,,0.00,194.669998,,2013-11-30 23:12:00,
2013-11-30 15:42:00,51.0,42.0,-100.00,SW,232,1.0,2.0,72,-99.99,,,0.00,71.940002,,2013-11-30 23:42:00,
2013-11-30 15:53:00,51.0,42.0,-100.00,SW,232,1.0,2.0,72,-99.99,,,0.00,71.940002,,2013-11-30 23:53:00,
2013-11-30 16:02:00,51.0,42.0,-100.00,SW,232,1.0,2.0,72,-99.99,,,0.00,71.940002,,2013-12-01 00:02:00,
2013-11-30 16:11:00,51.0,42.0,-100.00,SW,232,1.0,2.0,72,-99.99,,,0.00,71.940002,,2013-12-01 00:11:00,
2013-11-30 16:42:00,54.0,42.0,-100.00,NNW,337,4.0,11.0,65,-99.99,,,0.00,195.830002,,2013-12-01 00:42:00,
2013-11-30 16:52:00,54.0,42.0,-100.00,NNW,337,4.0,11.0,65,-99.99,,,0.00,195.830002,,2013-12-01 00:52:00,
2013-11-30 17:01:00,54.0,42.0,-100.00,NNW,337,4.0,11.0,65,-99.99,,,0.00,195.830002,,2013-12-01 01:01:00,
2013-11-30 17:11:00,54.0,42.0,-100.00,NNW,337,4.0,11.0,65,-99.99,,,0.00,195.830002,,2013-12-01 01:11:00,
2013-11-30 17:42:00,50.0,41.0,-100.00,NW,314,3.0,7.0,71,-99.99,,,0.00,9.180000,,2013-12-01 01:42:00,
2013-11-30 17:52:00,50.0,41.0,-100.00,NW,314,3.0,7.0,71,-99.99,,,0.00,9.180000,,2013-12-01 01:52:00,
2013-11-30 18:01:00,50.0,41.0,-100.00,NW,314,3.0,7.0,71,-99.99,,,0.00,9.180000,,2013-12-01 02:01:00,
2013-11-30 18:11:00,50.0,41.0,-100.00,NW,314,3.0,7.0,71,-99.99,,,0.00,9.180000,,2013-12-01 02:11:00,
2013-11-30 19:53:00,40.0,38.0,-100.00,SE,132,2.0,4.0,92,-99.99,,,0.00,0.120000,,2013-12-01 03:53:00,
2013-11-30 20:02:00,-999.0,-99.9,-100.00,SE,132,2.0,4.0,-999,-99.99,,,0.00,,,2013-12-01 04:02:00,
2013-11-30 20:42:00,40.0,37.0,-100.00,SSE,165,1.0,2.0,90,-99.99,,,0.00,0.120000,,2013-12-01 04:42:00,
2013-11-30 20:52:00,40.0,37.0,-100.00,SSE,165,1.0,2.0,90,-99.99,,,0.00,0.120000,,2013-12-01 04:52:00,
2013-11-30 21:02:00,40.0,37.0,-100.00,SSE,165,1.0,2.0,90,-99.99,,,0.00,0.120000,,2013-12-01 05:02:00,
2013-11-30 21:12:00,40.0,37.0,-100.00,SSE,165,1.0,2.0,90,-99.99,,,0.00,0.120000,,2013-12-01 05:12:00,
2013-11-30 21:43:00,39.0,37.0,-100.00,ESE,119,0.0,2.0,92,-99.99,,,0.00,0.120000,,2013-12-01 05:43:00,
2013-11-30 21:53:00,39.0,37.0,-100.00,ESE,119,0.0,2.0,92,-99.99,,,0.00,0.120000,,2013-12-01 05:53:00,
2013-11-30 22:02:00,39.0,37.0,-100.00,ESE,119,0.0,2.0,92,-99.99,,,0.00,0.120000,,2013-12-01 06:02:00,
2013-11-30 22:12:00,39.0,37.0,-100.00,ESE,119,0.0,2.0,92,-99.99,,,0.00,0.120000,,2013-12-01 06:12:00,
2013-11-30 22:42:00,39.0,37.0,-100.00,SSE,149,2.0,3.0,92,-99.99,,,0.00,0.120000,,2013-12-01 06:42:00,
2013-11-30 22:52:00,39.0,37.0,-100.00,SSE,149,2.0,3.0,92,-99.99,,,0.00,0.120000,,2013-12-01 06:52:00,
2013-11-30 23:01:00,39.0,37.0,-100.00,SSE,149,2.0,3.0,92,-99.99,,,0.00,0.120000,,2013-12-01 07:01:00,
2013-11-30 23:12:00,39.0,37.0,-100.00,SSE,149,2.0,3.0,92,-99.99,,,0.00,0.120000,,2013-12-01 07:12:00,